createdAt,value
2023-02-03T00:01:31.695Z,7.90
2023-02-03T00:03:33.188Z,7.90
2023-02-03T00:05:36.019Z,7.93
2023-02-03T00:07:39.175Z,7.95
2023-02-03T00:09:41.354Z,7.95
2023-02-03T00:11:42.850Z,7.97
2023-02-03T00:13:44.347Z,7.99
2023-02-03T00:15:46.017Z,8.02
2023-02-03T00:17:47.469Z,8.02
2023-02-03T00:19:50.112Z,8.01
2023-02-03T00:21:51.558Z,8.00
2023-02-03T00:23:54.699Z,7.99
2023-02-03T00:25:56.274Z,7.97
2023-02-03T00:27:57.957Z,7.95
2023-02-03T00:29:59.613Z,7.94
2023-02-03T00:32:01.272Z,7.94
2023-02-03T00:34:02.789Z,7.93
2023-02-03T00:36:06.056Z,7.93
2023-02-03T00:38:07.526Z,7.89
2023-02-03T00:40:09.626Z,7.90
2023-02-03T00:42:11.081Z,7.91
2023-02-03T00:44:12.569Z,7.93
2023-02-03T00:46:14.199Z,7.94
2023-02-03T00:48:15.737Z,7.94
2023-02-03T00:50:17.433Z,7.95
2023-02-03T00:52:19.002Z,7.94
2023-02-03T00:54:20.453Z,7.96
2023-02-03T00:56:21.924Z,7.97
2023-02-03T00:58:23.390Z,8.01
2023-02-03T01:00:25.117Z,8.01
2023-02-03T01:02:26.857Z,8.01
2023-02-03T01:04:28.616Z,8.01
2023-02-03T01:06:30.443Z,8.02
2023-02-03T01:08:32.237Z,8.05
2023-02-03T01:10:33.800Z,8.06
2023-02-03T01:12:35.278Z,8.06
2023-02-03T01:14:36.766Z,8.07
2023-02-03T01:16:38.776Z,8.07
2023-02-03T01:18:41.193Z,8.08
2023-02-03T01:20:42.728Z,8.08
2023-02-03T01:22:44.194Z,8.09
2023-02-03T01:24:45.853Z,8.10
2023-02-03T01:26:47.431Z,8.12
2023-02-03T01:28:54.435Z,8.12
2023-02-03T01:30:55.953Z,8.13
2023-02-03T01:32:57.541Z,8.13
2023-02-03T01:34:59.044Z,8.12
2023-02-03T01:37:00.548Z,8.12
2023-02-03T01:39:03.241Z,8.13
2023-02-03T01:41:08.076Z,8.13
2023-02-03T01:43:11.094Z,8.13
2023-02-03T01:45:13.719Z,8.16
2023-02-03T01:47:29.343Z,8.16
2023-02-03T01:49:36.690Z,8.19
2023-02-03T01:51:41.868Z,8.19
2023-02-03T01:53:44.506Z,8.18
2023-02-03T01:55:49.926Z,8.16
2023-02-03T01:57:58.527Z,8.14
2023-02-03T02:00:01.039Z,8.17
2023-02-03T02:02:05.038Z,8.17
2023-02-03T02:04:06.968Z,8.16
2023-02-03T02:06:10.703Z,8.16
2023-02-03T02:08:14.027Z,8.18
2023-02-03T02:10:15.774Z,8.16
2023-02-03T02:12:17.300Z,8.16
2023-02-03T02:14:19.335Z,8.17
2023-02-03T02:16:26.856Z,8.18
2023-02-03T02:18:47.954Z,8.18
2023-02-03T02:21:35.715Z,8.19
2023-02-03T02:23:55.320Z,8.19
2023-02-03T02:26:35.740Z,8.21
2023-02-03T02:28:55.856Z,8.20
2023-02-03T02:31:13.183Z,8.23
2023-02-03T02:33:23.398Z,8.24
2023-02-03T02:36:07.439Z,8.27
2023-02-03T02:38:35.747Z,8.26
2023-02-03T02:40:52.232Z,8.29
2023-02-03T02:43:06.428Z,8.27
2023-02-03T02:45:10.446Z,8.24
2023-02-03T02:47:19.573Z,8.25
2023-02-03T02:49:28.230Z,8.25
2023-02-03T02:51:32.307Z,8.27
2023-02-03T02:53:38.125Z,8.26
2023-02-03T02:55:42.131Z,8.23
2023-02-03T02:57:45.522Z,8.25
2023-02-03T02:59:48.001Z,8.28
2023-02-03T03:01:49.590Z,8.30
2023-02-03T03:03:52.148Z,8.33
2023-02-03T03:06:08.797Z,8.34
2023-02-03T03:08:14.245Z,8.34
2023-02-03T03:10:22.167Z,8.33
2023-02-03T03:12:32.560Z,8.36
2023-02-03T03:14:36.575Z,8.36
2023-02-03T03:16:43.111Z,8.39
2023-02-03T03:18:51.401Z,8.38
2023-02-03T03:20:56.057Z,8.38
2023-02-03T03:23:03.103Z,8.40
2023-02-03T03:25:13.730Z,8.42
2023-02-03T03:27:32.441Z,8.41
2023-02-03T03:29:38.219Z,8.39
2023-02-03T03:31:41.171Z,8.40
2023-02-03T03:33:43.003Z,8.41
2023-02-03T03:35:47.103Z,8.40
2023-02-03T03:38:00.037Z,8.43
2023-02-03T03:40:13.503Z,8.43
2023-02-03T03:42:28.778Z,8.45
2023-02-03T03:44:48.244Z,8.44
2023-02-03T03:46:51.998Z,8.41
2023-02-03T03:49:01.780Z,8.42
2023-02-03T03:51:09.751Z,8.43
2023-02-03T03:53:14.526Z,8.42
2023-02-03T03:55:19.435Z,8.42
2023-02-03T03:57:45.112Z,8.44
2023-02-03T03:59:49.568Z,8.43
2023-02-03T04:01:52.197Z,8.45
2023-02-03T04:04:00.099Z,8.45
2023-02-03T04:06:02.069Z,8.44
2023-02-03T04:08:03.788Z,8.44
2023-02-03T04:10:12.650Z,8.44
2023-02-03T04:12:21.361Z,8.42
2023-02-03T04:14:22.791Z,8.42
2023-02-03T04:16:24.254Z,8.39
2023-02-03T04:18:25.811Z,8.38
2023-02-03T04:20:31.439Z,8.40
2023-02-03T04:22:32.952Z,8.40
2023-02-03T04:24:34.426Z,8.41
2023-02-03T04:26:35.910Z,8.42
2023-02-03T04:28:37.381Z,8.41
2023-02-03T04:30:38.955Z,8.39
2023-02-03T04:32:40.898Z,8.36
2023-02-03T04:34:42.393Z,8.35
2023-02-03T04:36:43.917Z,8.32
2023-02-03T04:38:45.389Z,8.30
2023-02-03T04:40:46.895Z,8.29
2023-02-03T04:42:48.472Z,8.28
2023-02-03T04:44:50.303Z,8.26
2023-02-03T04:46:51.765Z,8.23
2023-02-03T04:48:53.272Z,8.23
2023-02-03T04:50:54.779Z,8.22
2023-02-03T04:52:56.278Z,8.19
2023-02-03T04:54:57.829Z,8.17
2023-02-03T04:56:59.282Z,8.16
2023-02-03T04:59:00.723Z,8.17
2023-02-03T05:01:08.303Z,8.18
2023-02-03T05:03:09.869Z,8.19
2023-02-03T05:05:11.328Z,8.25
2023-02-03T05:07:12.798Z,8.27
2023-02-03T05:09:14.801Z,8.31
2023-02-03T05:11:16.273Z,8.34
2023-02-03T05:13:17.742Z,8.36
2023-02-03T05:15:19.193Z,8.37
2023-02-03T05:17:20.674Z,8.38
2023-02-03T05:19:22.116Z,8.37
2023-02-03T05:21:23.577Z,8.38
2023-02-03T05:23:25.120Z,8.40
2023-02-03T05:25:26.809Z,8.39
2023-02-03T05:27:28.321Z,8.38
2023-02-03T05:29:29.813Z,8.37
2023-02-03T05:31:31.367Z,8.37
2023-02-03T05:33:32.850Z,8.39
2023-02-03T05:35:34.419Z,8.37
2023-02-03T05:37:35.925Z,8.37
2023-02-03T05:39:37.440Z,8.36
2023-02-03T05:41:55.904Z,8.35
2023-02-03T05:43:58.744Z,8.35
2023-02-03T05:46:07.624Z,8.33
2023-02-03T05:48:09.624Z,8.32
2023-02-03T05:50:11.133Z,8.33
2023-02-03T05:52:12.592Z,8.34
2023-02-03T05:54:14.131Z,8.32
2023-02-03T05:56:16.018Z,8.31
2023-02-03T05:58:17.513Z,8.27
2023-02-03T06:00:21.441Z,8.24
2023-02-03T06:02:22.915Z,8.24
2023-02-03T06:04:24.370Z,8.23
2023-02-03T06:06:27.222Z,8.20
2023-02-03T06:08:28.827Z,8.17
2023-02-03T06:10:30.418Z,8.13
2023-02-03T06:12:32.387Z,8.10
2023-02-03T06:14:33.927Z,8.07
2023-02-03T06:16:35.392Z,8.01
2023-02-03T06:18:36.854Z,7.96
2023-02-03T06:20:38.326Z,7.93
2023-02-03T06:22:39.926Z,7.88
2023-02-03T06:24:41.404Z,7.84
2023-02-03T06:26:42.839Z,7.81
2023-02-03T06:28:44.305Z,7.78
2023-02-03T06:30:45.898Z,7.77
2023-02-03T06:32:48.653Z,7.78
2023-02-03T06:34:50.114Z,7.78
2023-02-03T06:36:51.625Z,7.79
2023-02-03T06:38:53.120Z,7.79
2023-02-03T06:40:54.535Z,7.81
2023-02-03T06:42:55.993Z,7.84
2023-02-03T06:44:57.431Z,7.89
2023-02-03T06:46:59.197Z,7.93
2023-02-03T06:49:00.739Z,7.97
2023-02-03T06:51:02.193Z,8.04
2023-02-03T06:53:03.826Z,8.07
2023-02-03T06:55:06.544Z,8.11
2023-02-03T06:57:07.987Z,8.19
2023-02-03T06:59:10.187Z,8.25
2023-02-03T07:01:11.739Z,8.32
2023-02-03T07:03:13.256Z,8.37
2023-02-03T07:05:14.748Z,8.43
2023-02-03T07:07:16.603Z,8.46
2023-02-03T07:09:18.117Z,8.46
2023-02-03T07:11:19.566Z,8.51
2023-02-03T07:13:21.527Z,8.53
2023-02-03T07:15:22.967Z,8.57
2023-02-03T07:17:24.431Z,8.58
2023-02-03T07:19:25.985Z,8.62
2023-02-03T07:21:27.438Z,8.64
2023-02-03T07:23:28.890Z,8.68
2023-02-03T07:25:31.364Z,8.69
2023-02-03T07:27:32.859Z,8.73
2023-02-03T07:29:34.430Z,8.76
2023-02-03T07:31:36.222Z,8.77
2023-02-03T07:33:38.786Z,8.81
2023-02-03T07:35:40.235Z,8.83
2023-02-03T07:37:43.069Z,8.85
2023-02-03T07:39:46.047Z,8.90
2023-02-03T07:41:47.525Z,8.93
2023-02-03T07:43:49.025Z,8.93
2023-02-03T07:45:50.506Z,8.94
2023-02-03T07:47:51.974Z,8.99
2023-02-03T07:49:53.441Z,8.98
2023-02-03T07:51:56.475Z,8.98
2023-02-03T07:53:57.978Z,8.98
2023-02-03T07:56:03.685Z,8.99
2023-02-03T07:58:05.191Z,8.99
2023-02-03T08:00:07.170Z,8.99
2023-02-03T08:02:11.339Z,9.01
2023-02-03T08:04:16.467Z,9.06
2023-02-03T08:06:18.065Z,9.10
2023-02-03T08:08:19.524Z,9.11
2023-02-03T08:10:21.012Z,9.13
2023-02-03T08:12:22.460Z,9.14
2023-02-03T08:14:24.025Z,9.17
2023-02-03T08:16:25.584Z,9.19
2023-02-03T08:18:27.083Z,9.20
2023-02-03T08:20:28.847Z,9.22
2023-02-03T08:22:30.535Z,9.23
2023-02-03T08:24:32.010Z,9.27
2023-02-03T08:26:33.479Z,9.28
2023-02-03T08:28:35.159Z,9.29
2023-02-03T08:30:36.673Z,9.28
2023-02-03T08:32:38.163Z,9.27
2023-02-03T08:34:40.059Z,9.29
2023-02-03T08:36:41.613Z,9.29
2023-02-03T08:38:44.539Z,9.30
2023-02-03T08:40:45.998Z,9.31
2023-02-03T08:42:47.469Z,9.33
2023-02-03T08:44:49.323Z,9.34
2023-02-03T08:46:52.090Z,9.36
2023-02-03T08:48:56.427Z,9.40
2023-02-03T08:50:58.545Z,9.40
2023-02-03T08:53:00.017Z,9.40
2023-02-03T08:55:01.780Z,9.42
2023-02-03T08:57:03.597Z,9.45
2023-02-03T08:59:05.048Z,9.43
2023-02-03T09:01:08.920Z,9.44
2023-02-03T09:03:10.616Z,9.42
2023-02-03T09:05:12.553Z,9.42
2023-02-03T09:07:14.258Z,9.43
2023-02-03T09:09:15.768Z,9.43
2023-02-03T09:11:18.701Z,9.42
2023-02-03T09:13:20.166Z,9.44
2023-02-03T09:15:21.682Z,9.30
2023-02-03T09:17:23.139Z,8.98
2023-02-03T09:19:24.740Z,8.62
2023-02-03T09:21:34.468Z,8.28
2023-02-03T09:23:40.187Z,8.04
2023-02-03T09:25:43.726Z,7.86
2023-02-03T09:27:47.459Z,7.78
2023-02-03T09:29:48.947Z,7.76
2023-02-03T09:31:53.750Z,7.78
2023-02-03T09:33:55.341Z,7.87
2023-02-03T09:35:57.604Z,7.91
2023-02-03T09:38:00.753Z,7.96
2023-02-03T09:40:02.547Z,8.06
2023-02-03T09:42:17.602Z,8.11
2023-02-03T09:44:37.719Z,8.15
2023-02-03T09:46:44.101Z,8.17
2023-02-03T09:48:54.838Z,8.25
2023-02-03T09:50:56.528Z,8.29
2023-02-03T09:52:58.930Z,8.37
2023-02-03T09:55:28.106Z,8.42
2023-02-03T09:57:42.823Z,8.47
2023-02-03T09:59:44.294Z,8.53
2023-02-03T10:02:30.291Z,8.57
2023-02-03T10:04:39.848Z,8.62
2023-02-03T10:06:45.697Z,8.67
2023-02-03T10:08:50.324Z,8.71
2023-02-03T10:11:11.153Z,8.73
2023-02-03T10:13:24.926Z,8.75
2023-02-03T10:15:40.796Z,8.81
2023-02-03T10:17:53.046Z,8.89
2023-02-03T10:20:09.721Z,8.96
2023-02-03T10:22:20.162Z,9.00
2023-02-03T10:24:44.791Z,9.05
2023-02-03T10:26:46.906Z,9.08
2023-02-03T10:28:55.983Z,9.11
2023-02-03T10:30:59.960Z,9.12
2023-02-03T10:33:10.285Z,9.14
2023-02-03T10:35:13.140Z,9.20
2023-02-03T10:37:33.739Z,9.29
2023-02-03T10:39:44.016Z,9.34
2023-02-03T10:41:45.866Z,9.38
2023-02-03T10:43:51.688Z,9.47
2023-02-03T10:45:53.378Z,9.54
2023-02-03T10:47:56.183Z,9.59
2023-02-03T10:49:58.758Z,9.68
2023-02-03T10:52:04.982Z,9.80
2023-02-03T10:54:27.754Z,9.90
2023-02-03T10:56:37.906Z,9.98
2023-02-03T10:58:46.395Z,10.08
2023-02-03T11:00:55.111Z,10.06
2023-02-03T11:02:58.861Z,10.06
2023-02-03T11:05:19.474Z,9.97
2023-02-03T11:07:26.919Z,9.89
2023-02-03T11:09:43.004Z,9.87
2023-02-03T11:11:44.496Z,9.87
2023-02-03T11:13:46.113Z,9.91
2023-02-03T11:15:47.631Z,9.98
2023-02-03T11:17:49.155Z,10.06
2023-02-03T11:19:53.116Z,10.13
2023-02-03T11:21:56.838Z,10.21
2023-02-03T11:24:13.160Z,10.12
2023-02-03T11:26:19.084Z,10.02
2023-02-03T11:28:22.047Z,10.12
2023-02-03T11:30:28.117Z,10.19
2023-02-03T11:32:36.804Z,10.62
2023-02-03T11:34:39.557Z,10.84
2023-02-03T11:36:41.366Z,10.74
2023-02-03T11:38:44.683Z,10.45
2023-02-03T11:40:46.230Z,10.24
2023-02-03T11:42:50.423Z,10.15
2023-02-03T11:44:53.162Z,10.10
2023-02-03T11:47:16.795Z,10.04
2023-02-03T11:49:52.187Z,9.97
2023-02-03T11:52:06.292Z,9.94
2023-02-03T11:54:28.772Z,9.92
2023-02-03T11:56:52.158Z,10.01
2023-02-03T11:59:11.649Z,9.97
2023-02-03T12:01:15.991Z,9.91
2023-02-03T12:03:39.640Z,9.86
2023-02-03T12:06:16.677Z,9.91
2023-02-03T12:08:50.609Z,9.87
2023-02-03T12:10:52.007Z,9.90
2023-02-03T12:13:39.926Z,9.91
2023-02-03T12:16:02.856Z,9.91
2023-02-03T12:18:32.524Z,9.90
2023-02-03T12:20:52.864Z,9.85
2023-02-03T12:23:09.050Z,9.89
2023-02-03T12:25:38.423Z,9.88
2023-02-03T12:27:55.912Z,9.84
2023-02-03T12:30:02.697Z,9.87
2023-02-03T12:32:29.199Z,9.82
2023-02-03T12:34:38.105Z,9.79
2023-02-03T12:36:45.069Z,9.82
2023-02-03T12:38:58.294Z,9.75
2023-02-03T12:41:01.315Z,9.75
2023-02-03T12:43:27.387Z,9.68
2023-02-03T12:45:32.168Z,9.68
2023-02-03T12:47:44.559Z,9.67
2023-02-03T12:49:52.985Z,9.66
2023-02-03T12:52:17.265Z,9.63
2023-02-03T12:54:24.391Z,9.56
2023-02-03T12:56:31.832Z,9.55
2023-02-03T12:58:40.253Z,9.50
2023-02-03T13:00:54.856Z,9.46
2023-02-03T13:03:07.244Z,9.43
2023-02-03T13:05:22.319Z,9.42
2023-02-03T13:07:37.137Z,9.39
2023-02-03T13:10:03.670Z,9.41
2023-02-03T13:12:24.059Z,9.42
2023-02-03T13:14:35.301Z,9.38
2023-02-03T13:16:42.512Z,9.37
2023-02-03T13:18:49.952Z,9.36
2023-02-03T13:20:51.550Z,9.36
2023-02-03T13:22:53.347Z,9.35
2023-02-03T13:25:09.350Z,9.29
2023-02-03T13:27:34.222Z,9.26
2023-02-03T13:29:44.949Z,9.25
2023-02-03T13:31:46.483Z,9.23
2023-02-03T13:33:55.605Z,9.20
2023-02-03T13:36:32.337Z,9.13
2023-02-03T13:39:07.170Z,9.09
2023-02-03T13:41:18.731Z,9.07
2023-02-03T13:43:38.286Z,9.08
2023-02-03T13:45:45.192Z,9.06
2023-02-03T13:47:51.521Z,9.04
2023-02-03T13:49:59.873Z,9.03
2023-02-03T13:52:01.670Z,9.00
2023-02-03T13:54:12.988Z,9.02
2023-02-03T13:56:25.094Z,9.00
2023-02-03T13:58:32.989Z,9.00
2023-02-03T14:00:43.686Z,8.97
2023-02-03T14:02:53.571Z,8.93
2023-02-03T14:04:57.980Z,8.91
2023-02-03T14:07:02.172Z,8.90
2023-02-03T14:09:20.413Z,8.87
2023-02-03T14:11:37.821Z,8.84
2023-02-03T14:13:39.380Z,8.78
2023-02-03T14:15:42.057Z,8.77
2023-02-03T14:17:43.449Z,8.73
2023-02-03T14:19:50.739Z,8.70
2023-02-03T14:21:59.530Z,8.68
2023-02-03T14:24:07.588Z,8.65
2023-02-03T14:26:19.148Z,8.64
2023-02-03T14:28:25.630Z,8.60
2023-02-03T14:30:27.484Z,8.58
2023-02-03T14:32:54.085Z,8.57
2023-02-03T14:34:55.608Z,8.54
2023-02-03T14:37:08.979Z,8.56
2023-02-03T14:39:20.021Z,8.52
2023-02-03T14:41:49.126Z,8.48
2023-02-03T14:44:06.931Z,8.49
2023-02-03T14:46:35.972Z,8.44
2023-02-03T14:48:46.385Z,8.45
2023-02-03T14:51:11.978Z,8.41
2023-02-03T14:53:22.371Z,8.43
2023-02-03T14:55:50.050Z,8.40
2023-02-03T14:57:55.573Z,8.41
2023-02-03T15:00:25.209Z,8.41
2023-02-03T15:02:31.064Z,8.39
2023-02-03T15:04:32.645Z,8.36
2023-02-03T15:06:43.294Z,8.36
2023-02-03T15:08:47.580Z,8.35
2023-02-03T15:10:49.040Z,8.32
2023-02-03T15:12:54.061Z,8.31
2023-02-03T15:15:22.668Z,8.32
2023-02-03T15:17:26.456Z,8.26
2023-02-03T15:19:33.249Z,8.25
2023-02-03T15:21:41.524Z,8.24
2023-02-03T15:23:48.057Z,8.24
2023-02-03T15:25:59.667Z,8.22
2023-02-03T15:28:12.056Z,8.24
2023-02-03T15:30:16.487Z,8.21
2023-02-03T15:32:29.470Z,8.24
2023-02-03T15:34:43.447Z,8.21
2023-02-03T15:36:50.649Z,8.20
2023-02-03T15:39:00.745Z,8.19
2023-02-03T15:41:04.124Z,8.19
2023-02-03T15:43:17.096Z,8.15
2023-02-03T15:45:24.143Z,8.17
2023-02-03T15:47:35.883Z,8.14
2023-02-03T15:49:41.762Z,8.12
2023-02-03T15:52:00.879Z,8.10
2023-02-03T15:54:10.311Z,8.08
2023-02-03T15:56:20.047Z,8.06
2023-02-03T15:58:25.985Z,8.04
2023-02-03T16:00:30.081Z,8.03
2023-02-03T16:02:39.087Z,8.02
2023-02-03T16:04:40.777Z,8.03
2023-02-03T16:06:47.195Z,8.04
2023-02-03T16:08:51.500Z,8.01
2023-02-03T16:10:53.042Z,8.03
2023-02-03T16:12:55.111Z,8.02
2023-02-03T16:14:58.522Z,7.99
2023-02-03T16:17:05.375Z,7.98
2023-02-03T16:19:22.014Z,7.96
2023-02-03T16:21:32.440Z,7.97
2023-02-03T16:23:33.923Z,7.95
2023-02-03T16:25:35.963Z,7.96
2023-02-03T16:27:37.453Z,7.95
2023-02-03T16:29:57.603Z,7.92
2023-02-03T16:32:18.287Z,7.91
2023-02-03T16:34:38.017Z,7.89
2023-02-03T16:37:00.106Z,7.90
2023-02-03T16:39:21.800Z,7.84
2023-02-03T16:41:41.858Z,7.81
2023-02-03T16:44:01.735Z,7.79
2023-02-03T16:46:21.781Z,7.82
2023-02-03T16:48:41.690Z,7.82
2023-02-03T16:50:59.291Z,7.82
2023-02-03T16:53:01.197Z,7.84
2023-02-03T16:55:02.648Z,7.84
2023-02-03T16:57:04.216Z,7.81
2023-02-03T16:59:05.884Z,7.82
2023-02-03T17:01:09.527Z,7.81
2023-02-03T17:03:20.186Z,7.79
2023-02-03T17:05:21.689Z,7.79
2023-02-03T17:07:23.210Z,7.80
2023-02-03T17:09:25.091Z,7.78
2023-02-03T17:11:26.997Z,7.78
2023-02-03T17:13:28.570Z,7.75
2023-02-03T17:15:30.355Z,7.77
2023-02-03T17:17:32.221Z,7.74
2023-02-03T17:19:33.694Z,7.73
2023-02-03T17:21:35.284Z,7.73
2023-02-03T17:23:37.440Z,7.72
2023-02-03T17:25:39.763Z,7.70
2023-02-03T17:27:41.248Z,7.67
2023-02-03T17:29:42.838Z,7.67
2023-02-03T17:31:44.335Z,7.65
2023-02-03T17:33:46.369Z,7.65
2023-02-03T17:35:47.829Z,7.68
2023-02-03T17:37:49.313Z,7.67
2023-02-03T17:53:48.582Z,7.40
2023-02-03T17:55:50.295Z,7.34
2023-02-03T17:57:52.004Z,7.29
2023-02-03T17:59:55.299Z,7.24
2023-02-03T18:01:56.818Z,7.22
2023-02-03T18:04:04.615Z,7.22
2023-02-03T18:06:07.158Z,7.19
2023-02-03T18:08:16.241Z,7.18
2023-02-03T18:10:18.243Z,7.20
2023-02-03T18:12:19.822Z,7.22
2023-02-03T18:14:21.382Z,7.23
2023-02-03T18:16:26.116Z,7.24
2023-02-03T18:18:28.992Z,7.20
2023-02-03T18:20:30.742Z,7.22
2023-02-03T18:22:33.600Z,7.25
2023-02-03T18:24:35.094Z,7.25
2023-02-03T18:26:46.487Z,7.25
2023-02-03T18:28:51.634Z,7.19
2023-02-03T18:31:03.461Z,7.16
2023-02-03T18:33:04.930Z,7.14
2023-02-03T18:35:11.662Z,7.12
2023-02-03T18:37:13.127Z,7.06
2023-02-03T18:39:15.187Z,7.05
2023-02-03T18:41:18.879Z,7.02
2023-02-03T18:43:21.992Z,7.04
2023-02-03T18:45:23.471Z,7.04
2023-02-03T18:47:24.947Z,7.04
2023-02-03T18:49:26.423Z,7.04
2023-02-03T18:51:28.215Z,7.04
2023-02-03T18:53:31.200Z,7.05
2023-02-03T18:55:32.780Z,7.01
2023-02-03T18:57:34.280Z,6.98
2023-02-03T18:59:35.773Z,6.99
2023-02-03T19:01:39.082Z,6.97
2023-02-03T19:03:40.644Z,6.95
2023-02-03T19:05:42.975Z,6.95
2023-02-03T19:07:44.624Z,6.95
2023-02-03T19:09:46.184Z,6.95
2023-02-03T19:11:47.832Z,6.97
2023-02-03T19:13:49.500Z,6.99
2023-02-03T19:15:51.749Z,6.98
2023-02-03T19:17:53.297Z,7.01
2023-02-03T19:19:54.782Z,7.03
2023-02-03T19:21:56.234Z,7.05
2023-02-03T19:23:57.695Z,7.05
2023-02-03T19:25:59.257Z,7.06
2023-02-03T19:28:01.595Z,7.08
2023-02-03T19:30:04.226Z,7.06
2023-02-03T19:32:08.034Z,7.08
2023-02-03T19:34:09.664Z,7.07
2023-02-03T19:36:11.881Z,7.08
2023-02-03T19:38:13.346Z,7.09
2023-02-03T19:40:15.061Z,7.10
2023-02-03T19:42:16.654Z,7.09
2023-02-03T19:44:18.159Z,7.11
2023-02-03T19:46:23.015Z,7.11
2023-02-03T19:48:24.872Z,7.11
2023-02-03T19:50:26.379Z,7.15
2023-02-03T19:52:27.819Z,7.16
2023-02-03T19:54:29.309Z,7.16
2023-02-03T19:56:30.841Z,7.18
2023-02-03T19:58:32.340Z,7.19
2023-02-03T20:00:35.367Z,7.19
2023-02-03T20:02:38.099Z,7.20
2023-02-03T20:04:39.739Z,7.20
2023-02-03T20:06:41.411Z,7.24
2023-02-03T20:08:43.434Z,7.23
2023-02-03T20:10:45.450Z,7.22
2023-02-03T20:12:47.249Z,7.19
2023-02-03T20:14:48.943Z,7.21
2023-02-03T20:16:51.136Z,7.18
2023-02-03T20:18:52.652Z,7.18
2023-02-03T20:20:56.383Z,7.16
2023-02-03T20:22:57.895Z,7.17
2023-02-03T20:24:59.687Z,7.18
2023-02-03T20:27:01.192Z,7.17
2023-02-03T20:29:02.693Z,7.18
2023-02-03T20:31:04.474Z,7.19
2023-02-03T20:33:06.125Z,7.21
2023-02-03T20:35:08.643Z,7.18
2023-02-03T20:37:10.117Z,7.18
2023-02-03T20:39:18.616Z,7.16
2023-02-03T20:41:20.221Z,7.14
2023-02-03T20:43:23.884Z,7.16
2023-02-03T20:45:25.461Z,7.16
2023-02-03T20:47:27.040Z,7.17
2023-02-03T20:49:28.494Z,7.16
2023-02-03T20:51:30.110Z,7.16
2023-02-03T20:53:31.561Z,7.17
2023-02-03T20:55:36.687Z,7.19
2023-02-03T20:57:38.245Z,7.17
2023-02-03T20:59:39.791Z,7.17
2023-02-03T21:01:41.764Z,7.14
2023-02-03T21:04:02.076Z,7.11
2023-02-03T21:06:13.309Z,7.08
2023-02-03T21:08:16.598Z,7.03
2023-02-03T21:10:20.860Z,7.01
2023-02-03T21:12:22.362Z,7.02
2023-02-03T21:14:28.702Z,7.01
2023-02-03T21:16:39.267Z,7.02
2023-02-03T21:18:54.217Z,7.01
2023-02-03T21:20:56.090Z,6.99
2023-02-03T21:22:58.320Z,7.01
2023-02-03T21:25:03.128Z,7.02
2023-02-03T21:27:27.700Z,7.00
2023-02-03T21:29:33.533Z,6.97
2023-02-03T21:31:37.137Z,6.95
2023-02-03T21:33:41.933Z,6.93
2023-02-03T21:35:43.467Z,6.93
2023-02-03T21:37:44.993Z,6.92
2023-02-03T21:39:47.848Z,6.91
2023-02-03T21:41:49.507Z,6.89
2023-02-03T21:43:57.114Z,6.88
2023-02-03T21:45:58.662Z,6.83
2023-02-03T21:48:00.527Z,6.82
2023-02-03T21:50:02.354Z,6.79
2023-02-03T21:52:03.957Z,6.80
2023-02-03T21:54:27.851Z,6.77
2023-02-03T21:56:38.292Z,6.74
2023-02-03T21:58:39.788Z,6.72
2023-02-03T22:00:48.002Z,6.71
2023-02-03T22:02:59.768Z,6.69
2023-02-03T22:05:03.359Z,6.67
2023-02-03T22:07:14.931Z,6.64
2023-02-03T22:09:19.477Z,6.65
2023-02-03T22:11:23.042Z,6.65
2023-02-03T22:13:25.520Z,6.66
2023-02-03T22:15:27.005Z,6.66
2023-02-03T22:17:28.460Z,6.67
2023-02-03T22:19:29.909Z,6.68
2023-02-03T22:21:31.402Z,6.69
2023-02-03T22:23:33.650Z,6.69
2023-02-03T22:25:35.104Z,6.70
2023-02-03T22:27:36.596Z,6.71
2023-02-03T22:29:38.071Z,6.72
2023-02-03T22:31:40.754Z,6.70
2023-02-03T22:33:42.935Z,6.64
2023-02-03T22:35:45.017Z,6.63
2023-02-03T22:37:46.618Z,6.60
2023-02-03T22:39:48.093Z,6.58
2023-02-03T22:41:49.618Z,6.53
2023-02-03T22:43:51.069Z,6.45
2023-02-03T22:45:53.162Z,6.44
2023-02-03T22:47:56.512Z,6.38
2023-02-03T22:49:57.977Z,6.39
2023-02-03T22:51:59.433Z,6.36
2023-02-03T22:54:00.866Z,6.34
2023-02-03T22:56:02.399Z,6.27
2023-02-03T22:58:04.782Z,6.28
2023-02-03T23:00:11.700Z,6.26
2023-02-03T23:02:13.205Z,6.22
2023-02-03T23:04:14.863Z,6.22
2023-02-03T23:06:16.319Z,6.20
2023-02-03T23:08:17.793Z,6.18
2023-02-03T23:10:23.395Z,6.15
2023-02-03T23:12:24.935Z,6.14
2023-02-03T23:14:26.524Z,6.11
2023-02-03T23:16:28.065Z,6.04
2023-02-03T23:18:29.493Z,6.06
2023-02-03T23:20:31.543Z,6.03
2023-02-03T23:22:33.237Z,6.04
2023-02-03T23:24:34.796Z,5.99
2023-02-03T23:26:36.359Z,5.96
2023-02-03T23:28:37.830Z,5.92
2023-02-03T23:30:39.346Z,5.90
2023-02-03T23:32:40.981Z,5.88
2023-02-03T23:35:00.912Z,5.88
2023-02-03T23:37:02.471Z,5.86
2023-02-03T23:39:03.981Z,5.80
2023-02-03T23:41:05.510Z,5.75
2023-02-03T23:43:07.235Z,5.74
2023-02-03T23:45:11.796Z,5.67
2023-02-03T23:47:13.405Z,5.63
2023-02-03T23:49:14.878Z,5.59
2023-02-03T23:51:16.349Z,5.59
2023-02-03T23:53:17.825Z,5.58
2023-02-03T23:55:21.036Z,5.57
2023-02-03T23:57:22.502Z,5.56
2023-02-03T23:59:24.602Z,5.56
